Terminal Aerodrome Forecast
Issued by NWS

Home | Current Version | Previous Version | Graphics & Text | Print | Product List | Glossary On
Versions: 1 2 3 4 5 6 7 8 9 10 11 12 13 14 15 16 17 18 19 20 21
573
FTUS43 KIWX 192217 AAA
TAFSBN
TAF AMD
KSBN 192217Z 1922/2018 13005KT P6SM OVC035
     FM192300 12006KT 5SM -RA BR OVC035
     FM200200 11006KT 2SM -RA BR OVC025
     FM200600 10008KT 2SM RA BR OVC008
     FM201500 16005KT 1 1/2SM BR OVC008=

USA.gov is the U.S. government's official web portal to all federal, state and local government web resources and services.